Time;durP1;ratioP1;P1;durP2;ratioP2;P2;SDS_P1;SDS_P2;PMS_P1;PMS_P2;Temp;Humidity;BMP_temperature;BMP_pressure;BME280_temperature;BME280_humidity;BME280_pressure;Samples;Min_cycle;Max_cycle;Signal;HPM_P1;HPM_P2
2023/03/01 00:01:49;;;;;;;;;;;17.90;60.10;;;;;;5040841;28;1201;-72
2023/03/01 00:04:14;;;;;;;;;;;17.90;60.20;;;;;;5039723;28;900;-72
2023/03/01 00:06:39;;;;;;;;;;;17.90;60.20;;;;;;5039797;28;1902;-72
2023/03/01 00:09:06;;;;;;;;;;;17.90;60.20;;;;;;5037582;28;860;-72
2023/03/01 00:11:31;;;;;;;;;;;17.90;60.20;;;;;;5040661;28;1381;-72
2023/03/01 00:13:57;;;;;;;;;;;17.90;60.20;;;;;;5023786;28;1180;-72
2023/03/01 00:16:24;;;;;;;;;;;17.90;60.20;;;;;;5037123;28;1337;-72
2023/03/01 00:18:50;;;;;;;;;;;17.90;60.20;;;;;;5040858;28;1002;-72
2023/03/01 00:21:16;;;;;;;;;;;17.90;60.20;;;;;;5039893;28;1217;-72
2023/03/01 00:23:41;;;;;;;;;;;17.90;60.20;;;;;;5039748;28;870;-72
2023/03/01 00:26:10;;;;;;;;;;;17.90;60.20;;;;;;5037661;28;1961;-72
2023/03/01 00:28:35;;;;;;;;;;;17.90;60.20;;;;;;5037619;28;1026;-72
2023/03/01 00:31:04;;;;;;;;;;;17.90;60.30;;;;;;5036871;28;1396;-72
2023/03/01 00:33:30;;;;;;;;;;;17.90;60.30;;;;;;5037869;28;854;-73
2023/03/01 00:35:57;;;;;;;;;;;17.90;60.30;;;;;;5038075;28;879;-71
2023/03/01 00:38:22;;;;;;;;;;;17.90;60.30;;;;;;5038770;28;1372;-71
2023/03/01 00:40:48;;;;;;;;;;;17.90;60.30;;;;;;5037825;28;1335;-71
2023/03/01 00:43:13;;;;;;;;;;;17.90;60.30;;;;;;5037760;28;801;-71
2023/03/01 00:45:39;;;;;;;;;;;17.90;60.30;;;;;;5037392;28;1898;-71
2023/03/01 00:48:05;;;;;;;;;;;17.90;60.40;;;;;;5023294;28;1095;-72
2023/03/01 00:50:30;;;;;;;;;;;17.90;60.40;;;;;;5035480;28;836;-72
2023/03/01 00:52:56;;;;;;;;;;;17.90;60.40;;;;;;5038132;28;1220;-72
2023/03/01 00:55:21;;;;;;;;;;;17.90;60.40;;;;;;5039183;28;824;-72
2023/03/01 00:57:47;;;;;;;;;;;17.90;60.40;;;;;;5034877;28;847;-72
2023/03/01 01:00:12;;;;;;;;;;;17.90;60.40;;;;;;5035666;28;856;-71
2023/03/01 01:02:38;;;;;;;;;;;17.90;60.40;;;;;;5037076;28;1253;-72
2023/03/01 01:05:04;;;;;;;;;;;17.90;60.40;;;;;;5033663;28;883;-71
2023/03/01 01:07:29;;;;;;;;;;;17.90;60.50;;;;;;5037781;28;1898;-71
2023/03/01 01:09:55;;;;;;;;;;;17.90;60.50;;;;;;5035435;28;1266;-71
2023/03/01 01:12:20;;;;;;;;;;;17.80;60.40;;;;;;5038868;28;1296;-72
2023/03/01 01:14:46;;;;;;;;;;;17.90;60.50;;;;;;5037170;28;1632;-72
2023/03/01 01:17:11;;;;;;;;;;;17.90;60.50;;;;;;5037053;28;909;-73
2023/03/01 01:19:37;;;;;;;;;;;17.90;60.50;;;;;;5045703;28;810;-72
2023/03/01 01:22:03;;;;;;;;;;;17.90;60.50;;;;;;5039335;28;1356;-71
2023/03/01 01:24:28;;;;;;;;;;;17.90;60.60;;;;;;5043128;28;820;-72
2023/03/01 01:26:54;;;;;;;;;;;17.80;60.50;;;;;;5039973;28;1964;-71
2023/03/01 01:29:19;;;;;;;;;;;17.80;60.60;;;;;;5036157;28;832;-70
2023/03/01 01:31:45;;;;;;;;;;;17.80;60.70;;;;;;5037485;28;1429;-71
2023/03/01 01:34:17;;;;;;;;;;;17.80;60.80;;;;;;5037757;28;808;-72
2023/03/01 01:36:42;;;;;;;;;;;17.90;60.90;;;;;;5041278;28;1468;-71
2023/03/01 01:39:12;;;;;;;;;;;17.80;60.90;;;;;;5038248;28;978;-72
2023/03/01 01:41:38;;;;;;;;;;;17.80;60.90;;;;;;5041332;28;1387;-72
2023/03/01 01:44:10;;;;;;;;;;;17.80;61.00;;;;;;5042035;28;989;-73
2023/03/01 01:46:36;;;;;;;;;;;17.80;60.90;;;;;;5044283;28;1964;-72
2023/03/01 01:49:03;;;;;;;;;;;17.80;61.00;;;;;;5042961;28;1061;-72
2023/03/01 01:51:37;;;;;;;;;;;17.80;61.00;;;;;;5041452;28;1352;-71
2023/03/01 01:54:05;;;;;;;;;;;17.80;61.00;;;;;;5045569;28;1246;-72
2023/03/01 01:56:31;;;;;;;;;;;17.80;61.00;;;;;;5040437;28;954;-72
2023/03/01 01:58:56;;;;;;;;;;;17.80;61.00;;;;;;5045207;28;857;-71
2023/03/01 02:01:21;;;;;;;;;;;17.80;61.10;;;;;;5042906;28;1237;-72
2023/03/01 02:03:47;;;;;;;;;;;17.80;61.00;;;;;;5042245;28;948;-72
2023/03/01 02:06:15;;;;;;;;;;;17.80;61.10;;;;;;5040838;28;1899;-72
2023/03/01 02:08:41;;;;;;;;;;;17.80;61.10;;;;;;5041748;28;868;-72
2023/03/01 02:11:06;;;;;;;;;;;17.80;61.10;;;;;;5045931;28;1302;-72
2023/03/01 02:13:32;;;;;;;;;;;17.80;61.10;;;;;;5042023;28;911;-71
2023/03/01 02:15:58;;;;;;;;;;;17.80;61.10;;;;;;5045676;28;1385;-72
2023/03/01 02:18:23;;;;;;;;;;;17.80;61.10;;;;;;5041716;28;808;-71
2023/03/01 02:20:58;;;;;;;;;;;17.80;61.10;;;;;;5045209;28;1581;-71
2023/03/01 02:23:24;;;;;;;;;;;17.80;61.10;;;;;;5042022;28;864;-71
2023/03/01 02:25:57;;;;;;;;;;;17.80;61.10;;;;;;5042495;28;1967;-72
2023/03/01 02:28:32;;;;;;;;;;;17.80;61.20;;;;;;5075308;28;915;-72
2023/03/01 02:33:42;;;;;;;;;;;17.80;61.20;;;;;;5042478;28;754;-72
2023/03/01 02:36:14;;;;;;;;;;;17.80;61.20;;;;;;5048773;28;806;-72
2023/03/01 02:38:40;;;;;;;;;;;17.80;61.20;;;;;;5043250;28;1377;-72
2023/03/01 02:41:05;;;;;;;;;;;17.80;61.20;;;;;;5040074;28;1310;-72
2023/03/01 02:43:31;;;;;;;;;;;17.80;61.20;;;;;;5040019;28;820;-72
2023/03/01 02:45:57;;;;;;;;;;;17.80;61.30;;;;;;5045019;28;1965;-72
2023/03/01 02:48:23;;;;;;;;;;;17.80;61.20;;;;;;5047781;28;954;-73
2023/03/01 02:50:53;;;;;;;;;;;17.80;61.30;;;;;;5042676;28;1264;-72
2023/03/01 02:53:38;;;;;;;;;;;17.80;61.30;;;;;;5046386;28;919;-72
2023/03/01 02:56:04;;;;;;;;;;;17.80;61.30;;;;;;5038813;28;1063;-72
2023/03/01 02:58:29;;;;;;;;;;;17.80;61.30;;;;;;5042353;28;836;-71
2023/03/01 03:00:55;;;;;;;;;;;17.80;61.30;;;;;;5038897;28;1292;-71
2023/03/01 03:03:20;;;;;;;;;;;17.80;61.30;;;;;;5043887;28;863;-71
2023/03/01 03:05:47;;;;;;;;;;;17.80;61.30;;;;;;5041155;28;1902;-71
2023/03/01 03:08:14;;;;;;;;;;;17.80;61.30;;;;;;5041013;28;844;-71
2023/03/01 03:10:39;;;;;;;;;;;17.80;61.30;;;;;;5039010;28;792;-71
2023/03/01 03:13:06;;;;;;;;;;;17.80;61.30;;;;;;5040478;28;1402;-71
2023/03/01 03:15:35;;;;;;;;;;;17.80;61.40;;;;;;5044744;28;1378;-71
2023/03/01 03:18:01;;;;;;;;;;;17.80;61.40;;;;;;5040466;28;888;-70
2023/03/01 03:20:27;;;;;;;;;;;17.80;61.30;;;;;;5039057;28;883;-70
2023/03/01 03:22:53;;;;;;;;;;;17.70;61.30;;;;;;5042524;28;1267;-71
2023/03/01 03:25:19;;;;;;;;;;;17.80;61.40;;;;;;5039244;28;1006;-71
2023/03/01 03:27:45;;;;;;;;;;;17.70;61.30;;;;;;5046773;28;1967;-70
2023/03/01 03:30:12;;;;;;;;;;;17.70;61.30;;;;;;5040236;28;927;-71
2023/03/01 03:32:38;;;;;;;;;;;17.70;61.30;;;;;;5068668;28;1254;-70
2023/03/01 03:35:09;;;;;;;;;;;17.80;61.40;;;;;;5038256;28;884;-71
2023/03/01 03:40:25;;;;;;;;;;;17.80;61.40;;;;;;5039988;28;766;-71
2023/03/01 03:42:50;;;;;;;;;;;17.70;61.30;;;;;;5038208;28;1343;-71
2023/03/01 03:45:16;;;;;;;;;;;17.70;61.40;;;;;;5045199;28;881;-71
2023/03/01 03:47:41;;;;;;;;;;;17.70;61.40;;;;;;5038789;28;1914;-70
2023/03/01 03:50:07;;;;;;;;;;;17.80;61.40;;;;;;5038690;28;891;-71
2023/03/01 03:52:33;;;;;;;;;;;17.70;61.40;;;;;;5039657;28;1287;-70
2023/03/01 03:54:58;;;;;;;;;;;17.70;61.40;;;;;;5037357;28;860;-70
2023/03/01 03:57:24;;;;;;;;;;;17.70;61.40;;;;;;5041196;28;792;-70
2023/03/01 03:59:49;;;;;;;;;;;17.70;61.40;;;;;;5036145;28;863;-70
2023/03/01 04:02:21;;;;;;;;;;;17.70;61.40;;;;;;5037937;28;1343;-70
2023/03/01 04:04:50;;;;;;;;;;;17.70;61.40;;;;;;5037421;28;791;-71
2023/03/01 04:07:16;;;;;;;;;;;17.70;61.50;;;;;;5038357;28;1930;-71
2023/03/01 04:09:42;;;;;;;;;;;17.70;61.40;;;;;;5041919;28;888;-71
2023/03/01 04:12:08;;;;;;;;;;;17.70;61.40;;;;;;5038005;28;1297;-71
2023/03/01 04:14:33;;;;;;;;;;;17.80;61.40;;;;;;5038225;28;1018;-71
2023/03/01 04:16:58;;;;;;;;;;;17.80;61.20;;;;;;5037471;28;916;-71
2023/03/01 04:19:24;;;;;;;;;;;17.80;61.10;;;;;;5039881;28;881;-71
2023/03/01 04:21:49;;;;;;;;;;;17.90;61.10;;;;;;5037022;28;1330;-72
2023/03/01 04:24:15;;;;;;;;;;;17.90;60.90;;;;;;5043096;28;837;-71
2023/03/01 04:26:40;;;;;;;;;;;17.90;60.80;;;;;;5038991;28;1914;-71
2023/03/01 04:29:06;;;;;;;;;;;18.00;60.70;;;;;;5038210;28;995;-71
2023/03/01 04:31:31;;;;;;;;;;;18.00;60.60;;;;;;5043202;28;1329;-71
2023/03/01 04:33:57;;;;;;;;;;;18.10;60.50;;;;;;5038943;28;1011;-71
2023/03/01 04:36:26;;;;;;;;;;;18.10;60.40;;;;;;5036806;28;817;-71
2023/03/01 04:38:52;;;;;;;;;;;18.10;60.30;;;;;;5040138;28;1335;-73
2023/03/01 04:41:18;;;;;;;;;;;18.10;60.10;;;;;;5037213;28;1233;-73
2023/03/01 04:43:43;;;;;;;;;;;18.10;60.10;;;;;;5039895;28;892;-73
2023/03/01 04:46:10;;;;;;;;;;;18.20;60.10;;;;;;5037654;28;1955;-73
2023/03/01 04:48:36;;;;;;;;;;;18.20;60.00;;;;;;5036320;28;1038;-73
2023/03/01 04:51:02;;;;;;;;;;;18.20;60.00;;;;;;5044581;28;1284;-73
2023/03/01 04:53:27;;;;;;;;;;;18.20;59.90;;;;;;5035917;28;958;-73
2023/03/01 04:55:56;;;;;;;;;;;18.20;59.90;;;;;;5039011;28;863;-73
2023/03/01 04:58:24;;;;;;;;;;;18.20;59.80;;;;;;5040483;28;884;-71
2023/03/01 05:00:50;;;;;;;;;;;18.30;59.90;;;;;;5041230;28;1257;-72
2023/03/01 05:03:18;;;;;;;;;;;18.20;59.80;;;;;;5041335;28;877;-72
2023/03/01 05:05:44;;;;;;;;;;;18.30;59.80;;;;;;5043490;28;1921;-71
2023/03/01 05:08:17;;;;;;;;;;;18.30;59.80;;;;;;5037356;28;832;-71
2023/03/01 05:10:43;;;;;;;;;;;18.20;59.70;;;;;;5035201;28;1360;-71
2023/03/01 05:13:08;;;;;;;;;;;18.20;59.70;;;;;;5045054;28;932;-71
2023/03/01 05:15:34;;;;;;;;;;;18.30;59.80;;;;;;5038199;28;1281;-73
2023/03/01 05:17:59;;;;;;;;;;;18.30;59.70;;;;;;5044130;28;809;-73
2023/03/01 05:20:25;;;;;;;;;;;18.30;59.70;;;;;;5044822;28;1557;-73
2023/03/01 05:22:51;;;;;;;;;;;18.30;59.80;;;;;;5043471;28;1664;-73
2023/03/01 05:25:16;;;;;;;;;;;18.20;59.80;;;;;;5040894;28;919;-72
2023/03/01 05:27:42;;;;;;;;;;;18.20;59.80;;;;;;5045561;28;1902;-73
2023/03/01 05:30:14;;;;;;;;;;;18.20;59.80;;;;;;5044764;28;819;-73
2023/03/01 05:32:46;;;;;;;;;;;18.20;59.80;;;;;;5044904;28;1287;-72
2023/03/01 05:35:13;;;;;;;;;;;18.20;59.80;;;;;;5074056;28;823;-72
2023/03/01 05:37:42;;;;;;;;;;;18.20;59.80;;;;;;5046013;28;1589;-72
2023/03/01 05:40:15;;;;;;;;;;;18.20;59.90;;;;;;5043195;28;860;-72
2023/03/01 05:42:44;;;;;;;;;;;18.20;59.90;;;;;;5042558;28;1303;-72
2023/03/01 05:45:09;;;;;;;;;;;18.20;59.90;;;;;;5042929;28;852;-72
2023/03/01 05:47:35;;;;;;;;;;;18.20;59.90;;;;;;5041836;28;1902;-71
2023/03/01 05:50:01;;;;;;;;;;;18.20;59.90;;;;;;5040925;28;915;-71
2023/03/01 05:52:26;;;;;;;;;;;18.20;59.90;;;;;;5039502;28;1473;-71
2023/03/01 05:54:51;;;;;;;;;;;18.20;59.90;;;;;;5047979;28;1216;-69
2023/03/01 05:57:17;;;;;;;;;;;18.20;59.90;;;;;;5043259;28;1211;-69
2023/03/01 05:59:42;;;;;;;;;;;18.20;59.90;;;;;;5041515;28;824;-69
2023/03/01 06:02:08;;;;;;;;;;;18.20;59.90;;;;;;5041583;28;1363;-69
2023/03/01 06:04:33;;;;;;;;;;;18.10;59.90;;;;;;5041422;28;1838;-74
2023/03/01 06:06:59;;;;;;;;;;;18.10;59.90;;;;;;5038016;28;1914;-74
2023/03/01 06:09:25;;;;;;;;;;;18.10;59.90;;;;;;5044495;28;888;-75
2023/03/01 06:11:51;;;;;;;;;;;18.10;59.90;;;;;;5039963;28;1298;-68
2023/03/01 06:14:16;;;;;;;;;;;18.10;59.90;;;;;;5038862;28;805;-67
2023/03/01 06:16:42;;;;;;;;;;;18.10;59.90;;;;;;5040525;28;1321;-67
2023/03/01 06:19:07;;;;;;;;;;;18.10;59.90;;;;;;5040600;28;919;-68
2023/03/01 06:21:33;;;;;;;;;;;18.10;59.90;;;;;;5040357;28;1346;-70
2023/03/01 06:23:58;;;;;;;;;;;18.10;60.00;;;;;;5045176;28;931;-70
2023/03/01 06:26:23;;;;;;;;;;;18.10;60.00;;;;;;5030998;28;4298;-70
2023/03/01 06:28:49;;;;;;;;;;;18.10;60.00;;;;;;5039690;28;882;-70
2023/03/01 06:31:15;;;;;;;;;;;18.10;60.00;;;;;;5035790;28;2213;-69
2023/03/01 06:33:40;;;;;;;;;;;18.10;60.10;;;;;;5044119;28;2100;-69
2023/03/01 06:36:06;;;;;;;;;;;18.10;60.10;;;;;;5044532;28;1077;-69
2023/03/01 06:38:31;;;;;;;;;;;18.10;60.10;;;;;;5039998;28;1369;-69
2023/03/01 06:40:57;;;;;;;;;;;18.10;60.10;;;;;;5043551;28;1369;-70
2023/03/01 06:43:23;;;;;;;;;;;18.00;60.00;;;;;;5039535;28;828;-70
2023/03/01 06:45:48;;;;;;;;;;;18.00;60.10;;;;;;5070264;28;1906;-70
2023/03/01 06:48:14;;;;;;;;;;;18.00;60.10;;;;;;5040678;28;846;-70
2023/03/01 06:50:39;;;;;;;;;;;18.00;60.20;;;;;;5039058;28;833;-70
2023/03/01 06:53:05;;;;;;;;;;;18.00;60.10;;;;;;5040586;28;1350;-70
2023/03/01 06:55:30;;;;;;;;;;;18.00;60.90;;;;;;5041077;28;987;-70
2023/03/01 06:57:56;;;;;;;;;;;18.00;60.20;;;;;;5040895;28;1047;-70
2023/03/01 07:00:22;;;;;;;;;;;18.00;60.20;;;;;;5040145;28;1239;-69
2023/03/01 07:02:47;;;;;;;;;;;17.90;60.20;;;;;;5072944;28;1373;-70
2023/03/01 07:05:13;;;;;;;;;;;18.00;60.30;;;;;;5039908;28;1482;-70
2023/03/01 07:07:38;;;;;;;;;;;17.90;61.00;;;;;;5073654;28;1897;-72
2023/03/01 07:10:04;;;;;;;;;;;17.90;60.20;;;;;;5041623;28;1060;-71
2023/03/01 07:12:29;;;;;;;;;;;17.90;60.20;;;;;;5041272;28;1273;-71
2023/03/01 07:14:55;;;;;;;;;;;17.90;60.30;;;;;;5039837;28;1405;-71
2023/03/01 07:17:20;;;;;;;;;;;17.90;60.30;;;;;;5039116;28;2136;-70
2023/03/01 07:19:46;;;;;;;;;;;17.90;60.30;;;;;;5044250;28;2089;-70
2023/03/01 07:22:11;;;;;;;;;;;17.90;60.30;;;;;;5036886;28;1389;-69
2023/03/01 07:24:37;;;;;;;;;;;17.90;60.30;;;;;;5040091;28;1457;-69
2023/03/01 07:27:02;;;;;;;;;;;17.90;60.30;;;;;;5039393;28;1895;-69
2023/03/01 07:29:28;;;;;;;;;;;17.90;60.30;;;;;;5038259;28;880;-70
2023/03/01 07:31:54;;;;;;;;;;;17.90;60.30;;;;;;5042031;28;1462;-70
2023/03/01 07:34:19;;;;;;;;;;;17.90;60.20;;;;;;5039154;28;796;-70
2023/03/01 07:36:45;;;;;;;;;;;18.00;60.20;;;;;;5041160;28;1076;-70
2023/03/01 07:39:10;;;;;;;;;;;18.00;60.10;;;;;;5036815;28;813;-71
2023/03/01 07:41:36;;;;;;;;;;;18.00;60.10;;;;;;5039483;28;1209;-70
2023/03/01 07:44:01;;;;;;;;;;;18.00;60.00;;;;;;5038777;28;858;-70
2023/03/01 07:46:27;;;;;;;;;;;18.00;59.90;;;;;;5038379;28;1913;-69
2023/03/01 07:48:52;;;;;;;;;;;18.10;60.00;;;;;;5041350;28;1047;-69
2023/03/01 07:51:18;;;;;;;;;;;18.00;59.80;;;;;;5059706;28;1289;-70
2023/03/01 07:53:45;;;;;;;;;;;18.10;59.90;;;;;;5037938;28;1012;-70
2023/03/01 07:56:11;;;;;;;;;;;18.10;59.80;;;;;;5071085;28;1034;-69
2023/03/01 07:58:40;;;;;;;;;;;18.10;59.80;;;;;;5057575;28;892;-69
2023/03/01 08:01:06;;;;;;;;;;;18.10;59.80;;;;;;5056829;28;1364;-70
2023/03/01 08:03:32;;;;;;;;;;;18.10;59.70;;;;;;5041667;28;829;-69
2023/03/01 08:06:01;;;;;;;;;;;18.10;59.70;;;;;;5071021;28;1926;-70
2023/03/01 08:08:26;;;;;;;;;;;18.10;59.70;;;;;;5070945;28;876;-71
2023/03/01 08:10:52;;;;;;;;;;;18.10;59.70;;;;;;5072908;28;1351;-70
2023/03/01 08:13:22;;;;;;;;;;;18.10;59.60;;;;;;5037794;28;933;-70
2023/03/01 08:15:48;;;;;;;;;;;18.20;59.60;;;;;;5038686;28;1338;-70
2023/03/01 08:18:13;;;;;;;;;;;18.10;59.50;;;;;;5039253;28;782;-70
2023/03/01 08:20:39;;;;;;;;;;;18.10;59.50;;;;;;5039385;28;809;-71
2023/03/01 08:23:04;;;;;;;;;;;18.20;59.60;;;;;;5037586;28;1245;-70
2023/03/01 08:25:30;;;;;;;;;;;18.20;59.60;;;;;;5036481;28;1285;-71
2023/03/01 08:27:55;;;;;;;;;;;18.20;59.50;;;;;;5037461;28;2202;-70
2023/03/01 08:30:21;;;;;;;;;;;18.20;59.50;;;;;;5041948;28;1405;-71
2023/03/01 08:32:46;;;;;;;;;;;18.20;59.50;;;;;;5038622;28;1389;-71
2023/03/01 08:35:11;;;;;;;;;;;18.20;59.50;;;;;;5041887;28;801;-71
2023/03/01 08:37:37;;;;;;;;;;;18.20;59.50;;;;;;5037725;28;1474;-70
2023/03/01 08:40:06;;;;;;;;;;;18.20;60.10;;;;;;5053241;28;1147;-71
2023/03/01 08:42:32;;;;;;;;;;;18.20;59.50;;;;;;5037486;28;1291;-71
2023/03/01 08:44:58;;;;;;;;;;;18.20;59.50;;;;;;5071240;28;1278;-71
2023/03/01 08:47:23;;;;;;;;;;;18.20;59.50;;;;;;5042302;28;1965;-71
2023/03/01 08:49:49;;;;;;;;;;;18.20;59.50;;;;;;5037992;28;804;-71
2023/03/01 08:52:15;;;;;;;;;;;18.20;59.50;;;;;;5038025;28;1215;-71
2023/03/01 08:54:40;;;;;;;;;;;18.20;59.50;;;;;;5038733;28;999;-70
2023/03/01 08:57:05;;;;;;;;;;;18.20;59.50;;;;;;5039048;28;798;-70
2023/03/01 08:59:36;;;;;;;;;;;18.20;59.50;;;;;;5037821;28;843;-71
2023/03/01 09:02:02;;;;;;;;;;;18.20;59.50;;;;;;5040721;28;1275;-71
2023/03/01 09:04:28;;;;;;;;;;;18.20;59.50;;;;;;5041998;28;868;-71
2023/03/01 09:06:53;;;;;;;;;;;18.20;60.20;;;;;;5035770;28;1898;-72
2023/03/01 09:09:19;;;;;;;;;;;18.20;59.60;;;;;;5037300;28;987;-72
2023/03/01 09:11:45;;;;;;;;;;;18.20;59.60;;;;;;5039418;28;1273;-72
2023/03/01 09:14:11;;;;;;;;;;;18.10;59.50;;;;;;5039550;28;759;-72
2023/03/01 09:16:37;;;;;;;;;;;18.10;59.50;;;;;;5034897;28;1859;-72
2023/03/01 09:19:03;;;;;;;;;;;18.10;60.20;;;;;;5039185;28;1048;-72
2023/03/01 09:21:28;;;;;;;;;;;18.20;59.60;;;;;;5054543;28;1307;-72
2023/03/01 09:23:55;;;;;;;;;;;18.10;59.60;;;;;;5069495;28;831;-72
2023/03/01 09:26:21;;;;;;;;;;;18.10;59.60;;;;;;5037264;28;1906;-71
2023/03/01 09:28:47;;;;;;;;;;;18.10;59.70;;;;;;5072666;28;832;-70
2023/03/01 09:31:12;;;;;;;;;;;18.10;59.70;;;;;;5070303;28;1272;-71
2023/03/01 09:33:38;;;;;;;;;;;18.10;59.70;;;;;;5070802;28;840;-70
2023/03/01 09:36:04;;;;;;;;;;;18.10;59.70;;;;;;5037492;28;843;-71
2023/03/01 09:38:30;;;;;;;;;;;18.10;59.70;;;;;;5069548;28;1452;-73
2023/03/01 09:40:55;;;;;;;;;;;18.10;59.70;;;;;;5036481;28;1295;-74
2023/03/01 09:43:36;;;;;;;;;;;18.10;59.80;;;;;;5069499;28;812;-74
2023/03/01 09:46:05;;;;;;;;;;;18.10;59.80;;;;;;5039877;28;1958;-75
2023/03/01 09:48:33;;;;;;;;;;;18.10;59.80;;;;;;5070499;28;867;-74
2023/03/01 09:50:58;;;;;;;;;;;18.10;59.90;;;;;;5067377;28;1351;-73
2023/03/01 09:53:30;;;;;;;;;;;18.00;59.80;;;;;;5068200;28;904;-73
2023/03/01 09:56:05;;;;;;;;;;;18.00;59.90;;;;;;5035832;28;959;-73
2023/03/01 09:58:52;;;;;;;;;;;18.00;59.90;;;;;;5041418;28;1263;-73
2023/03/01 10:01:24;;;;;;;;;;;18.00;59.90;;;;;;5038174;28;1244;-73
2023/03/01 10:04:04;;;;;;;;;;;18.00;59.90;;;;;;5070722;28;1010;-72
2023/03/01 10:06:30;;;;;;;;;;;18.00;59.90;;;;;;5074782;28;1913;-73
2023/03/01 10:09:00;;;;;;;;;;;18.00;59.90;;;;;;5037880;28;824;-73
2023/03/01 10:11:27;;;;;;;;;;;18.00;59.90;;;;;;5074040;28;1361;-72
2023/03/01 10:13:58;;;;;;;;;;;18.00;59.90;;;;;;5071723;28;832;-73
2023/03/01 10:16:26;;;;;;;;;;;18.00;60.00;;;;;;5040754;28;972;-73
2023/03/01 10:18:53;;;;;;;;;;;18.00;60.00;;;;;;5074234;28;962;-72
2023/03/01 10:21:18;;;;;;;;;;;18.00;60.00;;;;;;5074326;28;1272;-72
2023/03/01 10:23:44;;;;;;;;;;;18.00;60.00;;;;;;5072083;28;804;-72
2023/03/01 10:26:22;;;;;;;;;;;18.00;60.00;;;;;;5073131;28;1898;-72
2023/03/01 10:28:50;;;;;;;;;;;18.00;60.00;;;;;;5040125;28;814;-71
2023/03/01 10:31:19;;;;;;;;;;;18.00;60.10;;;;;;5072259;28;1288;-71
2023/03/01 10:33:44;;;;;;;;;;;18.00;60.10;;;;;;5073392;28;1298;-71
2023/03/01 10:36:10;;;;;;;;;;;18.00;60.10;;;;;;5044279;28;1392;-72
2023/03/01 10:38:48;;;;;;;;;;;17.90;60.00;;;;;;5038386;28;2055;-73
2023/03/01 10:41:14;;;;;;;;;;;18.00;60.10;;;;;;5066335;28;2266;-73
2023/03/01 10:43:46;;;;;;;;;;;18.00;60.20;;;;;;5046730;28;2435;-71
2023/03/01 10:46:22;;;;;;;;;;;18.00;60.20;;;;;;5071679;28;2506;-72
2023/03/01 10:48:51;;;;;;;;;;;17.90;60.10;;;;;;5042671;28;852;-72
2023/03/01 10:51:17;;;;;;;;;;;17.90;60.20;;;;;;5076458;28;1272;-71
2023/03/01 10:53:43;;;;;;;;;;;17.90;60.20;;;;;;5073413;28;855;-72
2023/03/01 10:56:13;;;;;;;;;;;17.90;60.20;;;;;;5072271;28;832;-72
2023/03/01 10:58:39;;;;;;;;;;;17.90;60.20;;;;;;5040401;28;844;-72
2023/03/01 11:01:11;;;;;;;;;;;17.90;60.30;;;;;;5044490;28;1356;-72
2023/03/01 11:03:37;;;;;;;;;;;17.90;60.20;;;;;;5042420;28;1050;-72
2023/03/01 11:06:04;;;;;;;;;;;17.90;60.20;;;;;;5072306;28;1902;-71
2023/03/01 11:08:48;;;;;;;;;;;17.90;60.30;;;;;;5072288;28;824;-72
2023/03/01 11:11:16;;;;;;;;;;;17.90;60.30;;;;;;5070638;28;1345;-71
2023/03/01 11:13:58;;;;;;;;;;;17.90;60.30;;;;;;5039673;28;872;-72
2023/03/01 11:16:43;;;;;;;;;;;17.90;60.30;;;;;;5041989;28;877;-72
2023/03/01 11:19:09;;;;;;;;;;;17.90;60.30;;;;;;5038079;28;1122;-72
2023/03/01 11:21:42;;;;;;;;;;;17.90;60.30;;;;;;5037655;28;1342;-72
2023/03/01 11:24:12;;;;;;;;;;;17.90;60.30;;;;;;5073991;28;1029;-72
2023/03/01 11:26:38;;;;;;;;;;;17.90;60.30;;;;;;5072478;28;1959;-72
2023/03/01 11:29:05;;;;;;;;;;;17.90;60.30;;;;;;5070994;28;879;-72
2023/03/01 11:31:30;;;;;;;;;;;17.90;60.30;;;;;;5057833;28;1282;-71
2023/03/01 11:34:11;;;;;;;;;;;17.90;60.30;;;;;;5072904;28;964;-71
2023/03/01 11:36:36;;;;;;;;;;;17.90;60.30;;;;;;5070463;28;1449;-71
2023/03/01 11:39:03;;;;;;;;;;;17.90;60.30;;;;;;5039080;28;840;-71
2023/03/01 11:41:30;;;;;;;;;;;17.90;60.30;;;;;;5039735;28;1387;-71
2023/03/01 11:44:01;;;;;;;;;;;17.90;60.30;;;;;;5067075;28;1470;-71
2023/03/01 11:46:26;;;;;;;;;;;17.90;60.30;;;;;;5066386;28;1955;-72
2023/03/01 11:48:54;;;;;;;;;;;17.90;60.30;;;;;;5039174;28;935;-71
2023/03/01 11:51:38;;;;;;;;;;;17.90;60.40;;;;;;5036294;28;1346;-72
2023/03/01 11:54:04;;;;;;;;;;;17.90;60.30;;;;;;5035627;28;1670;-71
2023/03/01 11:56:38;;;;;;;;;;;17.90;60.30;;;;;;5039946;28;1330;-71
2023/03/01 11:59:22;;;;;;;;;;;17.90;60.40;;;;;;5039421;28;1275;-71
2023/03/01 12:02:02;;;;;;;;;;;17.90;60.40;;;;;;5043524;28;1397;-71
2023/03/01 12:04:28;;;;;;;;;;;17.90;60.40;;;;;;5041791;28;946;-72
2023/03/01 12:06:57;;;;;;;;;;;17.90;60.40;;;;;;5039208;28;1918;-73
2023/03/01 12:09:41;;;;;;;;;;;17.90;60.40;;;;;;5041543;28;767;-73
2023/03/01 12:12:15;;;;;;;;;;;17.90;60.40;;;;;;5039424;28;1289;-74
2023/03/01 12:15:10;;;;;;;;;;;17.90;60.40;;;;;;5071586;28;1187;-74
2023/03/01 12:17:47;;;;;;;;;;;17.90;60.40;;;;;;5023520;28;1342;-72
2023/03/01 12:20:27;;;;;;;;;;;17.90;60.40;;;;;;5039328;28;907;-73
2023/03/01 12:22:53;;;;;;;;;;;17.90;60.40;;;;;;5071345;28;1248;-72
2023/03/01 12:25:33;;;;;;;;;;;17.90;60.40;;;;;;5041412;28;857;-74
2023/03/01 12:28:07;;;;;;;;;;;17.90;60.40;;;;;;5070532;28;1937;-74
2023/03/01 12:31:02;;;;;;;;;;;17.90;60.40;;;;;;5070795;28;1527;-73
2023/03/01 12:33:37;;;;;;;;;;;17.90;60.50;;;;;;5036232;28;1258;-71
2023/03/01 12:36:02;;;;;;;;;;;17.90;60.50;;;;;;5039347;28;1980;-67
2023/03/01 12:38:27;;;;;;;;;;;17.90;60.50;;;;;;5040651;28;1625;-68
2023/03/01 12:40:59;;;;;;;;;;;17.90;60.50;;;;;;5035150;28;1614;-72
2023/03/01 12:43:25;;;;;;;;;;;17.80;60.70;;;;;;5040846;28;1419;-73
2023/03/01 12:45:57;;;;;;;;;;;17.90;60.50;;;;;;5042134;28;1369;-73
2023/03/01 12:48:41;;;;;;;;;;;17.90;60.60;;;;;;5066776;28;1473;-71
2023/03/01 12:51:14;;;;;;;;;;;17.80;60.50;;;;;;5037093;28;1339;-67
2023/03/01 12:53:41;;;;;;;;;;;17.80;60.50;;;;;;5067779;28;881;-68
2023/03/01 12:56:08;;;;;;;;;;;17.80;60.50;;;;;;5038833;28;880;-67
2023/03/01 12:58:34;;;;;;;;;;;17.80;60.50;;;;;;5038217;28;797;-71
2023/03/01 13:00:59;;;;;;;;;;;17.80;60.60;;;;;;5035268;28;1280;-71
2023/03/01 13:03:40;;;;;;;;;;;17.80;60.60;;;;;;5033887;28;896;-71
2023/03/01 13:06:16;;;;;;;;;;;17.80;60.60;;;;;;5035790;28;1906;-70
2023/03/01 13:08:53;;;;;;;;;;;17.80;60.60;;;;;;5070792;28;875;-69
2023/03/01 13:11:21;;;;;;;;;;;17.80;60.70;;;;;;5039435;28;1282;-68
2023/03/01 13:13:48;;;;;;;;;;;17.80;60.70;;;;;;5042289;28;1595;-68
2023/03/01 13:16:29;;;;;;;;;;;17.80;60.70;;;;;;5069252;28;1363;-69
2023/03/01 13:19:13;;;;;;;;;;;17.80;60.70;;;;;;5035731;28;809;-72
2023/03/01 13:21:38;;;;;;;;;;;17.80;60.70;;;;;;5070631;28;1282;-68
2023/03/01 13:24:04;;;;;;;;;;;17.80;60.70;;;;;;5037804;28;883;-72
2023/03/01 13:26:29;;;;;;;;;;;17.80;60.70;;;;;;5067907;28;1989;-69
2023/03/01 13:28:56;;;;;;;;;;;17.80;60.70;;;;;;5037962;28;864;-70
2023/03/01 13:31:25;;;;;;;;;;;17.80;60.70;;;;;;5038190;28;1229;-69
2023/03/01 13:33:54;;;;;;;;;;;17.80;60.70;;;;;;5041234;28;929;-70
2023/03/01 13:36:28;;;;;;;;;;;17.80;60.80;;;;;;5037852;28;787;-70
2023/03/01 13:38:57;;;;;;;;;;;17.80;60.80;;;;;;5043343;28;1460;-71
2023/03/01 13:41:40;;;;;;;;;;;17.80;60.70;;;;;;5042106;28;1353;-71
2023/03/01 13:44:25;;;;;;;;;;;17.80;60.80;;;;;;5043093;28;970;-71
2023/03/01 13:46:56;;;;;;;;;;;17.80;60.80;;;;;;5040114;28;1906;-69
2023/03/01 13:49:22;;;;;;;;;;;17.80;60.80;;;;;;5072811;28;911;-69
2023/03/01 13:51:48;;;;;;;;;;;17.80;60.80;;;;;;5073766;28;1369;-70
2023/03/01 13:54:14;;;;;;;;;;;17.80;60.80;;;;;;5073438;28;931;-73
2023/03/01 13:56:39;;;;;;;;;;;17.80;60.80;;;;;;5044573;28;935;-71
2023/03/01 13:59:18;;;;;;;;;;;17.80;60.80;;;;;;5040784;28;857;-73
2023/03/01 14:01:43;;;;;;;;;;;17.70;60.80;;;;;;5074875;28;1325;-72
2023/03/01 14:04:22;;;;;;;;;;;17.70;60.80;;;;;;5075642;28;1242;-71
2023/03/01 14:06:47;;;;;;;;;;;17.70;60.80;;;;;;5038815;28;1922;-72
2023/03/01 14:09:32;;;;;;;;;;;17.80;60.90;;;;;;5041803;28;1011;-71
2023/03/01 14:12:24;;;;;;;;;;;17.80;60.90;;;;;;5072312;28;1256;-72
2023/03/01 14:14:52;;;;;;;;;;;17.80;60.90;;;;;;5075625;28;863;-71
2023/03/01 14:17:36;;;;;;;;;;;17.70;60.90;;;;;;5042500;28;896;-71
2023/03/01 14:20:07;;;;;;;;;;;17.70;60.90;;;;;;5042670;28;832;-71
2023/03/01 14:22:35;;;;;;;;;;;17.70;60.90;;;;;;5064879;28;1417;-70
2023/03/01 14:25:02;;;;;;;;;;;17.70;60.90;;;;;;5055681;28;1311;-71
2023/03/01 14:27:39;;;;;;;;;;;17.70;60.90;;;;;;5059684;28;1906;-70
2023/03/01 14:30:19;;;;;;;;;;;17.70;60.90;;;;;;5071968;28;824;-69
2023/03/01 14:32:51;;;;;;;;;;;17.70;60.90;;;;;;5072751;28;2131;-70
2023/03/01 14:35:21;;;;;;;;;;;17.70;60.90;;;;;;5071650;28;1821;-70
2023/03/01 14:37:49;;;;;;;;;;;17.70;60.90;;;;;;5074379;28;1371;-70
2023/03/01 14:40:28;;;;;;;;;;;17.70;60.90;;;;;;5038948;28;1461;-70
2023/03/01 14:42:53;;;;;;;;;;;17.70;61.00;;;;;;5057593;28;1320;-70
2023/03/01 14:45:20;;;;;;;;;;;17.70;60.90;;;;;;5041670;28;867;-70
2023/03/01 14:47:45;;;;;;;;;;;17.70;60.90;;;;;;5071979;28;1906;-70